Princeton, Oregon
Current Conditions -  °F | °C
As of 3:53 AM on Saturday 25 Oct 2014 (Local Time) from KBNO Reporting Station
Clear Clear  
Wind Chill: -1°   Ceiling: Unl
Heat Index:   Visibility: 10mi
Dew Point:   Wind: 5mph
Humidity: 92%   Direction: 50°NE
Pressure: 29.83"   Gusts: NA
Location:  43.25°N, 118.58°W
Report Text: KBNO 251053Z AUTO 05004KT 10SM CLR 01/00 A2983 RMK AO2 SLP097 T00110000
Loading
Personal Weather Stations






























Interactive Weather Map
Tropical Storm Tracking
New forecast layout! Learn more

10-Day Weather Forecast

Advertisements
Track Severe Weather on mobile